This is the latest recevied weather packets stored in our database for station/object KJ4AJP. If no packets are shown the sender has not sent any weather packets the latest 1 day(s).
| Time | Temp. | Humidity | Pressure | Rain* | Wind** | Luminosity | Snow |
|---|---|---|---|---|---|---|---|
| 1778081474 | 12.22° C | 81% | 1015.2 hPa | 0 mm | - | 210 W/m² | - |
| 1778080869 | 12.22° C | 81% | 1015.3 hPa | 0 mm | - | 168 W/m² | - |
| 1778079657 | 11.67° C | 83% | 1014.8 hPa | 0 mm | - | 219 W/m² | - |
| 1778078748 | 11.11° C | 85% | 1014.7 hPa | 0 mm | - | 262 W/m² | - |
| 1778078445 | 10.56° C | 85% | 1014.4 hPa | 0 mm | - | 179 W/m² | - |
| 1778078143 | 10.56° C | 84% | 1014.4 hPa | 0 mm | - | 170 W/m² | - |
| 1778076934 | 10° C | 87% | 1014.2 hPa | 0 mm | - | 142 W/m² | - |
| 1778075723 | 10° C | 89% | 1013.9 hPa | 0 mm | - | 112 W/m² | - |
| 1778072994 | 9.44° C | 92% | 1013.3 hPa | 0 mm | - | 59 W/m² | - |
| 1778069666 | 9.44° C | 97% | 1012 hPa | 0 mm | - | 20 W/m² | - |
| 1778069363 | 9.44° C | 97% | 1012.1 hPa | 0 mm | - | 18 W/m² | - |
| 1778067851 | 9.44° C | 97% | 1011.8 hPa | 0 mm | - | 11 W/m² | - |
| 1778067550 | 9.44° C | 97% | 1012 hPa | 0 mm | - | 9 W/m² | - |
| 1778067247 | 9.44° C | 97% | 1011.7 hPa | 0 mm | - | 11 W/m² | - |
| 1778066641 | 10° C | 98% | 1011.9 hPa | 0 mm | - | 5 W/m² | - |
| 1778066338 | 10° C | 98% | 1011.9 hPa | 0 mm | - | 3 W/m² | - |
| 1778066036 | 9.44° C | 98% | 1011.7 hPa | 0 mm | - | 2 W/m² | - |
| 1778065733 | 10° C | 98% | 1011.9 hPa | 0 mm | - | 1 W/m² | - |
| 1778065127 | 10° C | 98% | 1011.8 hPa | 0 mm | - | 0 W/m² | - |
| 1778063311 | 10° C | 98% | 1011.2 hPa | 0 mm | - | 0 W/m² | - |
| 1778062401 | 10° C | 98% | 1010.8 hPa | 0 mm | - | 0 W/m² | - |
| 1778062100 | 10° C | 98% | 1011 hPa | 0 mm | - | 0 W/m² | - |
| 1778061798 | 10° C | 98% | 1011 hPa | 0 mm | - | 0 W/m² | - |
| 1778061496 | 10° C | 98% | 1011.1 hPa | 0 mm | - | 0 W/m² | - |
| 1778060588 | 10° C | 98% | 1011 hPa | 0 mm | - | 0 W/m² | - |
* Rain latest hour (hover to see other rain measurements)
** Current wind speed in m/s (hover to see current wind gust speed)